Time;durP1;ratioP1;P1;durP2;ratioP2;P2;SDS_P1;SDS_P2;PMS_P1;PMS_P2;Temp;Humidity;BMP_temperature;BMP_pressure;BME280_temperature;BME280_humidity;BME280_pressure;Samples;Min_cycle;Max_cycle;Signal;HPM_P1;HPM_P2
2023/05/26 00:00:34;;;;;;;17.17;11.13;;;;;;;;;;9502362;30;20048;-65
2023/05/26 00:05:28;;;;;;;14.00;9.95;;;;;;;;;;9505068;30;20056;-65
2023/05/26 00:10:21;;;;;;;14.63;8.38;;;;;;;;;;9498913;30;20473;-65
2023/05/26 00:15:15;;;;;;;8.75;7.40;;;;;;;;;;9509436;30;20394;-65
2023/05/26 00:20:11;;;;;;;10.40;8.80;;;;;;;;;;9475972;30;20087;-65
2023/05/26 00:25:07;;;;;;;9.52;6.88;;;;;;;;;;9502417;30;20144;-65
2023/05/26 00:30:03;;;;;;;7.25;6.63;;;;;;;;;;9514049;30;20064;-65
2023/05/26 00:34:56;;;;;;;12.77;8.45;;;;;;;;;;9491286;30;20064;-65
2023/05/26 00:39:50;;;;;;;10.68;7.22;;;;;;;;;;9493651;30;20052;-65
2023/05/26 00:44:43;;;;;;;11.25;7.35;;;;;;;;;;9477334;30;20155;-65
2023/05/26 00:49:36;;;;;;;9.63;7.60;;;;;;;;;;9480127;30;20501;-65
2023/05/26 00:54:30;;;;;;;8.80;7.78;;;;;;;;;;9489257;30;20138;-65
2023/05/26 00:59:23;;;;;;;10.05;8.00;;;;;;;;;;9511020;30;20071;-65
2023/05/26 01:04:16;;;;;;;10.90;7.63;;;;;;;;;;9501039;30;20049;-65
2023/05/26 01:09:09;;;;;;;9.43;7.55;;;;;;;;;;9502798;30;20056;-65
2023/05/26 01:14:15;;;;;;;9.18;7.30;;;;;;;;;;9509567;30;20140;-65
2023/05/26 01:19:16;;;;;;;11.35;8.20;;;;;;;;;;9504050;30;20106;-65
2023/05/26 01:24:37;;;;;;;10.05;9.15;;;;;;;;;;9511705;30;20466;-65
2023/05/26 01:29:35;;;;;;;12.23;7.70;;;;;;;;;;9487268;30;20143;-65
2023/05/26 01:34:29;;;;;;;13.73;8.75;;;;;;;;;;9510338;30;20067;-65
2023/05/26 01:39:21;;;;;;;11.05;9.63;;;;;;;;;;9508253;30;20055;-65
2023/05/26 01:44:41;;;;;;;10.57;9.48;;;;;;;;;;9506876;30;20083;-65
2023/05/26 01:49:34;;;;;;;12.68;10.13;;;;;;;;;;9492863;30;20421;-65
2023/05/26 01:54:32;;;;;;;9.73;8.73;;;;;;;;;;9502293;30;20056;-66
2023/05/26 01:59:29;;;;;;;14.03;8.67;;;;;;;;;;9507187;30;20508;-65
2023/05/26 02:04:23;;;;;;;10.18;7.55;;;;;;;;;;9500286;30;20509;-65
2023/05/26 02:09:17;;;;;;;10.82;7.75;;;;;;;;;;9494296;30;20048;-65
2023/05/26 02:14:10;;;;;;;12.70;8.57;;;;;;;;;;9508956;30;20094;-65
2023/05/26 02:19:03;;;;;;;12.88;9.40;;;;;;;;;;9506180;30;20109;-65
2023/05/26 02:23:59;;;;;;;12.85;9.57;;;;;;;;;;9479149;30;20481;-65
2023/05/26 02:28:55;;;;;;;10.57;9.20;;;;;;;;;;9469666;30;20075;-65
2023/05/26 02:33:50;;;;;;;11.40;8.27;;;;;;;;;;9495911;30;20099;-65
2023/05/26 02:38:43;;;;;;;19.67;9.23;;;;;;;;;;9507371;30;20080;-65
2023/05/26 02:43:38;;;;;;;9.05;8.15;;;;;;;;;;9499078;30;20087;-64
2023/05/26 02:48:31;;;;;;;8.25;7.45;;;;;;;;;;9504113;30;20071;-65
2023/05/26 02:53:24;;;;;;;9.32;7.57;;;;;;;;;;9476022;30;20087;-64
2023/05/26 02:58:16;;;;;;;11.50;7.95;;;;;;;;;;9483264;30;20091;-64
2023/05/26 03:03:09;;;;;;;9.52;7.78;;;;;;;;;;9478417;30;20053;-65
2023/05/26 03:08:03;;;;;;;11.95;7.15;;;;;;;;;;9498193;30;20428;-64
2023/05/26 03:12:57;;;;;;;10.93;9.63;;;;;;;;;;9493931;30;20052;-65
2023/05/26 03:17:51;;;;;;;12.52;10.38;;;;;;;;;;9495756;30;20100;-65
2023/05/26 03:22:46;;;;;;;15.00;11.77;;;;;;;;;;9493889;30;20060;-65
2023/05/26 03:27:46;;;;;;;15.32;11.73;;;;;;;;;;9504367;30;20063;-64
2023/05/26 03:32:39;;;;;;;12.20;11.10;;;;;;;;;;9503757;30;20056;-65
2023/05/26 03:37:32;;;;;;;18.95;13.60;;;;;;;;;;9505189;30;20062;-64
2023/05/26 03:42:27;;;;;;;17.90;12.30;;;;;;;;;;9493703;30;20084;-64
2023/05/26 03:47:20;;;;;;;14.52;12.38;;;;;;;;;;9504939;30;20398;-64
2023/05/26 03:52:13;;;;;;;18.67;13.27;;;;;;;;;;9506223;30;20101;-64
2023/05/26 03:57:06;;;;;;;15.05;12.55;;;;;;;;;;9470601;30;20060;-64
2023/05/26 04:02:01;;;;;;;13.40;12.00;;;;;;;;;;9480305;30;20057;-64
2023/05/26 04:06:55;;;;;;;15.15;11.48;;;;;;;;;;9489891;30;20056;-64
2023/05/26 04:11:48;;;;;;;14.32;11.88;;;;;;;;;;9499581;30;20056;-64
2023/05/26 04:16:41;;;;;;;17.02;11.75;;;;;;;;;;9492172;30;20509;-64
2023/05/26 04:21:35;;;;;;;17.50;12.18;;;;;;;;;;9490280;30;20101;-63
2023/05/26 04:26:33;;;;;;;14.05;10.65;;;;;;;;;;9494379;30;20071;-62
2023/05/26 04:31:55;;;;;;;14.27;11.57;;;;;;;;;;9492717;30;20055;-63
2023/05/26 04:37:04;;;;;;;;;;;;;;;;;;9489289;30;20076;-63
2023/05/26 04:41:58;;;;;;;13.43;10.63;;;;;;;;;;9493997;30;19960;-64
2023/05/26 04:46:53;;;;;;;12.60;10.20;;;;;;;;;;9490684;30;20064;-64
2023/05/26 04:51:47;;;;;;;18.77;10.27;;;;;;;;;;9487704;30;20977;-64
2023/05/26 04:56:41;;;;;;;17.92;10.48;;;;;;;;;;9489979;30;20068;-63
2023/05/26 05:01:35;;;;;;;14.38;9.57;;;;;;;;;;9502585;30;20084;-63
2023/05/26 05:06:44;;;;;;;17.35;9.57;;;;;;;;;;9496132;30;20056;-63
2023/05/26 05:11:38;;;;;;;16.10;11.00;;;;;;;;;;9497375;30;20060;-62
2023/05/26 05:16:32;;;;;;;12.52;10.60;;;;;;;;;;9490738;30;20052;-64
2023/05/26 05:21:27;;;;;;;14.70;12.10;;;;;;;;;;9504554;30;20505;-62
2023/05/26 05:26:22;;;;;;;16.45;10.07;;;;;;;;;;9498215;30;20051;-63
2023/05/26 05:31:16;;;;;;;16.70;10.73;;;;;;;;;;9494615;30;20052;-63
2023/05/26 05:36:10;;;;;;;14.32;10.45;;;;;;;;;;9487963;30;20079;-62
2023/05/26 05:41:04;;;;;;;13.88;11.90;;;;;;;;;;9506171;30;20059;-63
2023/05/26 05:45:58;;;;;;;14.52;11.20;;;;;;;;;;9503840;30;20063;-63
2023/05/26 05:51:10;;;;;;;15.63;10.95;;;;;;;;;;9488272;30;20070;-63
2023/05/26 05:56:04;;;;;;;13.85;11.02;;;;;;;;;;9497522;30;20078;-63
2023/05/26 06:00:58;;;;;;;13.25;11.38;;;;;;;;;;9494799;30;20073;-63
2023/05/26 06:05:52;;;;;;;12.25;10.82;;;;;;;;;;9501298;30;20080;-64
2023/05/26 06:10:46;;;;;;;16.98;11.52;;;;;;;;;;9492661;30;20118;-63
2023/05/26 06:15:40;;;;;;;12.13;10.85;;;;;;;;;;9512616;30;20117;-61
2023/05/26 06:20:33;;;;;;;15.77;10.02;;;;;;;;;;9485066;30;20052;-62
2023/05/26 06:25:26;;;;;;;14.63;10.73;;;;;;;;;;9503550;30;20051;-62
2023/05/26 06:30:20;;;;;;;17.08;9.52;;;;;;;;;;9496281;30;20060;-62
2023/05/26 06:35:21;;;;;;;12.90;9.32;;;;;;;;;;9500575;30;20126;-62
2023/05/26 06:40:15;;;;;;;11.38;10.25;;;;;;;;;;9489800;30;20509;-62
2023/05/26 06:45:11;;;;;;;15.60;10.77;;;;;;;;;;9509693;30;20052;-62
2023/05/26 06:50:05;;;;;;;18.27;11.65;;;;;;;;;;9502471;30;20049;-62
2023/05/26 06:54:59;;;;;;;14.77;12.93;;;;;;;;;;9501409;30;20147;-62
2023/05/26 06:59:53;;;;;;;15.68;14.02;;;;;;;;;;9487686;30;20063;-62
2023/05/26 07:04:47;;;;;;;21.20;12.73;;;;;;;;;;9500988;30;20147;-61
2023/05/26 07:09:40;;;;;;;14.77;12.07;;;;;;;;;;9479396;30;20131;-63
2023/05/26 07:14:37;;;;;;;15.13;11.48;;;;;;;;;;9478307;30;20056;-63
2023/05/26 07:19:30;;;;;;;10.73;9.70;;;;;;;;;;9500284;30;20048;-63
2023/05/26 07:24:24;;;;;;;13.70;10.98;;;;;;;;;;9500481;30;20131;-62
2023/05/26 07:29:18;;;;;;;12.23;10.70;;;;;;;;;;9491936;30;20063;-62
2023/05/26 07:34:11;;;;;;;13.52;11.40;;;;;;;;;;9513538;30;22020;-62
2023/05/26 07:39:06;;;;;;;12.48;9.75;;;;;;;;;;9484020;30;20126;-63
2023/05/26 07:44:00;;;;;;;11.38;10.20;;;;;;;;;;9504810;30;20147;-63
2023/05/26 07:48:54;;;;;;;13.82;11.15;;;;;;;;;;9494410;30;20060;-62
2023/05/26 07:53:47;;;;;;;14.15;11.23;;;;;;;;;;9490533;30;20110;-61
2023/05/26 07:58:41;;;;;;;12.32;10.82;;;;;;;;;;9488636;30;20121;-62
2023/05/26 08:03:35;;;;;;;13.70;11.38;;;;;;;;;;9496946;30;20098;-62
2023/05/26 08:08:29;;;;;;;11.80;9.88;;;;;;;;;;9496703;30;20059;-63
2023/05/26 08:13:23;;;;;;;13.23;9.95;;;;;;;;;;9471512;30;20139;-63
2023/05/26 08:18:17;;;;;;;11.65;9.60;;;;;;;;;;9499791;30;20106;-63
2023/05/26 08:23:10;;;;;;;12.40;9.95;;;;;;;;;;9496176;30;20138;-64
2023/05/26 08:28:03;;;;;;;9.38;7.95;;;;;;;;;;9495180;30;20055;-64
2023/05/26 08:32:56;;;;;;;9.00;8.18;;;;;;;;;;9494474;30;20139;-64
2023/05/26 08:37:50;;;;;;;10.93;8.65;;;;;;;;;;9492874;30;20060;-64
2023/05/26 08:42:45;;;;;;;9.70;8.25;;;;;;;;;;9498119;30;20090;-65
2023/05/26 08:47:40;;;;;;;9.98;8.93;;;;;;;;;;9499630;30;20056;-64
2023/05/26 08:52:34;;;;;;;9.32;8.43;;;;;;;;;;9494993;30;20060;-65
2023/05/26 08:57:29;;;;;;;11.25;9.63;;;;;;;;;;9517082;30;20063;-65
2023/05/26 09:02:22;;;;;;;8.85;7.60;;;;;;;;;;9489503;30;20071;-65
2023/05/26 09:07:17;;;;;;;13.80;8.32;;;;;;;;;;9488896;30;20064;-65
2023/05/26 09:12:14;;;;;;;14.65;7.75;;;;;;;;;;9492714;30;20064;-65
2023/05/26 09:17:12;;;;;;;10.18;7.15;;;;;;;;;;9502562;30;20131;-67
2023/05/26 09:22:07;;;;;;;12.88;6.80;;;;;;;;;;9498955;30;20064;-65
2023/05/26 09:27:01;;;;;;;10.57;6.68;;;;;;;;;;9500882;30;20059;-65
2023/05/26 09:31:55;;;;;;;8.25;6.05;;;;;;;;;;9508843;30;20076;-65
2023/05/26 09:36:49;;;;;;;7.63;6.35;;;;;;;;;;9509426;30;20566;-65
2023/05/26 09:41:45;;;;;;;8.63;5.97;;;;;;;;;;9508486;30;20087;-66
2023/05/26 09:46:38;;;;;;;8.35;5.10;;;;;;;;;;9508813;30;20052;-66
2023/05/26 09:51:32;;;;;;;5.75;5.20;;;;;;;;;;9508848;30;20056;-65
2023/05/26 09:56:36;;;;;;;8.27;5.32;;;;;;;;;;9502203;30;20080;-66
2023/05/26 10:01:31;;;;;;;7.72;5.03;;;;;;;;;;9504992;30;20087;-66
2023/05/26 10:06:25;;;;;;;8.27;5.00;;;;;;;;;;9508688;30;20064;-66
2023/05/26 10:11:20;;;;;;;7.80;5.53;;;;;;;;;;9508604;30;20513;-66
2023/05/26 10:16:13;;;;;;;11.02;6.00;;;;;;;;;;9507957;29;20059;-66
2023/05/26 10:21:08;;;;;;;6.50;5.90;;;;;;;;;;9508741;30;20052;-66
2023/05/26 10:26:17;;;;;;;17.92;8.30;;;;;;;;;;9506077;30;20079;-66
2023/05/26 10:31:18;;;;;;;6.75;4.90;;;;;;;;;;9506935;30;20071;-66
2023/05/26 10:36:19;;;;;;;7.00;5.10;;;;;;;;;;9507506;30;20052;-66
2023/05/26 10:41:29;;;;;;;7.13;5.43;;;;;;;;;;9495674;30;20091;-66
2023/05/26 10:46:23;;;;;;;7.45;4.88;;;;;;;;;;9507785;30;20092;-66
2023/05/26 10:51:25;;;;;;;8.07;5.45;;;;;;;;;;9507443;30;20058;-66
2023/05/26 10:56:25;;;;;;;10.10;6.07;;;;;;;;;;9506062;30;20139;-66
2023/05/26 11:01:29;;;;;;;7.20;5.07;;;;;;;;;;9506544;30;20064;-66
2023/05/26 11:06:35;;;;;;;5.70;4.78;;;;;;;;;;9497424;30;20561;-66
2023/05/26 11:11:30;;;;;;;10.68;6.13;;;;;;;;;;9493022;30;20056;-62
2023/05/26 11:16:25;;;;;;;5.83;3.77;;;;;;;;;;9498946;30;20455;-62
2023/05/26 11:21:28;;;;;;;6.82;5.07;;;;;;;;;;9491851;30;20052;-66
2023/05/26 11:26:23;;;;;;;6.18;5.60;;;;;;;;;;9506706;30;20057;-63
2023/05/26 11:31:18;;;;;;;9.13;5.97;;;;;;;;;;9502648;30;20060;-62
2023/05/26 11:36:14;;;;;;;8.27;5.68;;;;;;;;;;9504602;30;20060;-63
2023/05/26 11:41:09;;;;;;;10.13;6.18;;;;;;;;;;9504470;30;20056;-64
2023/05/26 11:46:05;;;;;;;6.07;5.47;;;;;;;;;;9469590;30;20068;-67
2023/05/26 11:50:58;;;;;;;7.65;5.35;;;;;;;;;;9469948;30;20084;-64
2023/05/26 11:56:07;;;;;;;12.13;5.80;;;;;;;;;;9494869;30;20098;-65
2023/05/26 12:01:01;;;;;;;11.57;5.25;;;;;;;;;;9504304;30;20134;-65
2023/05/26 12:06:16;;;;;;;8.15;5.18;;;;;;;;;;9503488;30;20052;-65
2023/05/26 12:11:33;;;;;;;5.88;5.18;;;;;;;;;;9504594;30;20060;-65
2023/05/26 12:16:35;;;;;;;7.20;5.60;;;;;;;;;;9504058;30;20083;-64
2023/05/26 12:21:27;;;;;;;7.03;5.13;;;;;;;;;;9503336;29;20048;-64
2023/05/26 12:26:23;;;;;;;7.72;4.93;;;;;;;;;;9503634;30;20064;-64
2023/05/26 12:31:18;;;;;;;8.40;4.53;;;;;;;;;;9490348;30;20057;-64
2023/05/26 12:36:12;;;;;;;9.77;5.45;;;;;;;;;;9482890;30;20060;-65
2023/05/26 12:41:05;;;;;;;11.93;4.80;;;;;;;;;;9513571;30;20115;-65
2023/05/26 12:45:59;;;;;;;7.72;4.47;;;;;;;;;;9490657;30;20127;-65
2023/05/26 12:50:53;;;;;;;6.63;5.07;;;;;;;;;;9479091;30;20067;-65
2023/05/26 12:55:46;;;;;;;6.05;3.88;;;;;;;;;;9475882;30;20479;-65
2023/05/26 13:00:40;;;;;;;8.85;4.13;;;;;;;;;;9500439;30;20494;-65
2023/05/26 13:05:35;;;;;;;7.00;3.80;;;;;;;;;;9509440;30;20072;-65
2023/05/26 13:10:27;;;;;;;6.72;3.00;;;;;;;;;;9510090;30;20064;-65
2023/05/26 13:15:21;;;;;;;8.93;4.65;;;;;;;;;;9510453;30;20068;-65
2023/05/26 13:20:15;;;;;;;;;;;;;;;;;;9510373;30;20444;-65
2023/05/26 13:25:09;;;;;;;10.15;4.30;;;;;;;;;;9505268;30;20413;-65
2023/05/26 13:30:03;;;;;;;4.37;3.70;;;;;;;;;;9502448;30;20400;-65
2023/05/26 13:34:56;;;;;;;6.80;3.40;;;;;;;;;;9510155;30;20306;-65
2023/05/26 13:39:50;;;;;;;5.28;3.17;;;;;;;;;;9508842;30;20088;-65
2023/05/26 13:44:47;;;;;;;9.32;3.90;;;;;;;;;;9478606;30;20057;-65
2023/05/26 13:49:42;;;;;;;6.45;3.90;;;;;;;;;;9495202;30;20060;-65
2023/05/26 13:54:35;;;;;;;4.82;3.65;;;;;;;;;;9508722;30;20521;-64
2023/05/26 13:59:29;;;;;;;11.30;4.38;;;;;;;;;;9498410;30;20060;-65
2023/05/26 14:04:25;;;;;;;9.65;4.07;;;;;;;;;;9508195;30;20063;-65
2023/05/26 14:09:19;;;;;;;5.53;3.85;;;;;;;;;;9508107;30;20080;-66
2023/05/26 14:14:12;;;;;;;6.45;3.75;;;;;;;;;;9503927;30;20084;-65
2023/05/26 14:19:06;;;;;;;8.90;3.88;;;;;;;;;;9502946;30;20068;-64
2023/05/26 14:24:10;;;;;;;5.57;3.92;;;;;;;;;;9496843;30;20099;-64
2023/05/26 14:29:04;;;;;;;10.15;4.90;;;;;;;;;;9507888;30;20072;-65
2023/05/26 14:33:57;;;;;;;6.55;3.90;;;;;;;;;;9507249;30;20546;-65
2023/05/26 14:38:50;;;;;;;8.40;4.40;;;;;;;;;;9488568;30;20431;-65
2023/05/26 14:43:44;;;;;;;9.57;4.60;;;;;;;;;;9507806;30;20064;-64
2023/05/26 14:48:37;;;;;;;5.95;3.60;;;;;;;;;;9506669;29;20117;-65
2023/05/26 14:53:30;;;;;;;7.00;4.05;;;;;;;;;;9505099;30;20063;-66
2023/05/26 14:58:23;;;;;;;4.80;3.78;;;;;;;;;;9498046;30;20114;-64
2023/05/26 15:03:16;;;;;;;12.32;3.90;;;;;;;;;;9502488;30;20056;-64
2023/05/26 15:08:12;;;;;;;7.65;3.35;;;;;;;;;;9520427;30;20114;-64
2023/05/26 15:13:06;;;;;;;30.88;6.97;;;;;;;;;;9494746;30;20084;-65
2023/05/26 15:18:00;;;;;;;6.03;3.33;;;;;;;;;;9470815;30;20065;-65
2023/05/26 15:22:54;;;;;;;4.20;3.50;;;;;;;;;;9482603;30;20543;-65
2023/05/26 15:27:48;;;;;;;5.88;3.45;;;;;;;;;;9493892;30;20075;-65
2023/05/26 15:32:42;;;;;;;9.57;3.42;;;;;;;;;;9507637;30;20102;-65
2023/05/26 15:37:35;;;;;;;7.15;3.72;;;;;;;;;;9491042;30;20053;-65
2023/05/26 15:42:35;;;;;;;6.85;3.55;;;;;;;;;;9498989;30;20143;-65
2023/05/26 15:47:29;;;;;;;6.05;3.50;;;;;;;;;;9493186;30;20135;-65
2023/05/26 15:52:21;;;;;;;6.40;2.92;;;;;;;;;;9497182;30;20060;-65
2023/05/26 15:57:16;;;;;;;4.85;3.95;;;;;;;;;;9502105;30;20060;-64
2023/05/26 16:02:14;;;;;;;5.50;3.58;;;;;;;;;;9503078;30;20051;-66
2023/05/26 16:07:09;;;;;;;5.72;3.42;;;;;;;;;;9502030;30;20398;-66
2023/05/26 16:12:02;;;;;;;6.90;4.68;;;;;;;;;;9502338;30;20059;-67
2023/05/26 16:16:58;;;;;;;7.03;4.18;;;;;;;;;;9476925;30;20056;-66
2023/05/26 16:21:51;;;;;;;5.90;4.00;;;;;;;;;;9487831;30;20139;-66
2023/05/26 16:26:46;;;;;;;5.22;4.22;;;;;;;;;;9488932;30;20803;-67
2023/05/26 16:31:40;;;;;;;5.10;4.10;;;;;;;;;;9485938;30;20060;-67
2023/05/26 16:36:34;;;;;;;8.40;3.92;;;;;;;;;;9477107;30;20422;-66
2023/05/26 16:41:28;;;;;;;4.80;4.40;;;;;;;;;;9496826;30;20596;-67
2023/05/26 16:46:21;;;;;;;7.20;4.30;;;;;;;;;;9498565;30;20070;-67
2023/05/26 16:51:16;;;;;;;7.18;4.40;;;;;;;;;;9475577;30;20087;-67
2023/05/26 16:56:12;;;;;;;5.47;4.35;;;;;;;;;;9501371;30;20518;-66
2023/05/26 17:01:05;;;;;;;9.32;5.32;;;;;;;;;;9490971;30;20064;-66
2023/05/26 17:05:59;;;;;;;20.00;4.82;;;;;;;;;;9485670;30;20110;-66
2023/05/26 17:10:54;;;;;;;7.78;3.85;;;;;;;;;;9478899;30;20072;-66
2023/05/26 17:15:49;;;;;;;6.32;4.22;;;;;;;;;;9467460;30;20080;-67
2023/05/26 17:20:43;;;;;;;6.10;4.05;;;;;;;;;;9479006;30;20065;-68
2023/05/26 17:25:38;;;;;;;8.20;4.18;;;;;;;;;;9478439;30;20417;-68
2023/05/26 17:30:31;;;;;;;4.88;4.20;;;;;;;;;;9479153;30;20067;-68
2023/05/26 17:35:29;;;;;;;4.13;3.47;;;;;;;;;;9503284;30;20067;-68
2023/05/26 17:40:22;;;;;;;;;;;;;;;;;;9490610;30;20055;-68
2023/05/26 17:45:16;;;;;;;5.40;4.07;;;;;;;;;;9480221;30;19962;-68
2023/05/26 17:50:10;;;;;;;11.35;4.50;;;;;;;;;;9487357;30;20068;-67
2023/05/26 17:55:04;;;;;;;5.00;4.20;;;;;;;;;;9496816;30;20465;-67
2023/05/26 17:59:57;;;;;;;6.63;4.10;;;;;;;;;;9503656;30;20061;-66
2023/05/26 18:04:50;;;;;;;6.30;4.15;;;;;;;;;;9494496;30;20059;-66
2023/05/26 18:09:45;;;;;;;6.05;4.03;;;;;;;;;;9474852;30;20421;-67
2023/05/26 18:14:38;;;;;;;11.75;5.43;;;;;;;;;;9493644;30;20048;-68
2023/05/26 18:19:32;;;;;;;7.20;4.28;;;;;;;;;;9499605;30;20139;-68
2023/05/26 18:24:25;;;;;;;6.07;4.28;;;;;;;;;;9496683;30;20056;-69
2023/05/26 18:29:19;;;;;;;6.15;4.63;;;;;;;;;;9498809;30;20056;-68
2023/05/26 18:34:13;;;;;;;6.60;4.68;;;;;;;;;;9499778;30;20094;-68
2023/05/26 18:39:18;;;;;;;9.38;5.50;;;;;;;;;;9508594;30;20170;-68
2023/05/26 18:44:11;;;;;;;9.98;5.00;;;;;;;;;;9497030;30;20072;-68
2023/05/26 18:49:05;;;;;;;9.15;5.20;;;;;;;;;;9493629;30;20616;-68
2023/05/26 18:53:59;;;;;;;8.70;4.38;;;;;;;;;;9505771;30;20060;-67
2023/05/26 18:58:53;;;;;;;4.68;4.18;;;;;;;;;;9506633;30;20076;-69
2023/05/26 19:03:46;;;;;;;8.90;4.57;;;;;;;;;;9489377;30;20564;-67
2023/05/26 19:08:44;;;;;;;5.80;4.72;;;;;;;;;;9482252;30;20501;-68
2023/05/26 19:13:38;;;;;;;10.38;5.28;;;;;;;;;;9490483;29;20087;-68
2023/05/26 19:18:31;;;;;;;11.35;6.28;;;;;;;;;;9498107;30;20045;-67
2023/05/26 19:23:29;;;;;;;11.10;7.00;;;;;;;;;;9496786;30;20114;-67
2023/05/26 19:28:24;;;;;;;11.50;5.45;;;;;;;;;;9495766;30;20140;-67
2023/05/26 19:33:20;;;;;;;6.18;5.18;;;;;;;;;;9495781;30;20071;-68
2023/05/26 19:38:14;;;;;;;6.15;5.55;;;;;;;;;;9491006;30;20068;-68
2023/05/26 19:43:07;;;;;;;9.15;4.93;;;;;;;;;;9491022;30;20417;-70
2023/05/26 19:48:00;;;;;;;10.23;5.85;;;;;;;;;;9498859;30;20056;-68
2023/05/26 19:52:54;;;;;;;7.60;4.82;;;;;;;;;;9499383;30;20056;-73
2023/05/26 19:57:47;;;;;;;7.10;5.88;;;;;;;;;;9482821;30;20048;-71
2023/05/26 20:02:41;;;;;;;13.35;5.90;;;;;;;;;;9492297;30;20047;-73
2023/05/26 20:07:35;;;;;;;22.15;6.32;;;;;;;;;;9498808;30;20048;-72
2023/05/26 20:12:30;;;;;;;11.70;6.90;;;;;;;;;;9496441;30;20052;-72
2023/05/26 20:17:24;;;;;;;14.70;7.85;;;;;;;;;;9491316;30;20083;-68
2023/05/26 20:22:18;;;;;;;8.07;6.25;;;;;;;;;;9494191;30;20060;-70
2023/05/26 20:27:12;;;;;;;11.05;7.07;;;;;;;;;;9493580;30;20086;-71
2023/05/26 20:32:06;;;;;;;9.50;7.07;;;;;;;;;;9490369;30;20071;-73
2023/05/26 20:37:00;;;;;;;8.82;7.47;;;;;;;;;;9494122;30;20060;-73
2023/05/26 20:41:54;;;;;;;10.00;6.60;;;;;;;;;;9493711;30;20063;-74
2023/05/26 20:46:48;;;;;;;12.90;7.88;;;;;;;;;;9486921;30;20068;-74
2023/05/26 20:51:42;;;;;;;13.48;6.63;;;;;;;;;;9491824;30;20052;-72
2023/05/26 20:56:36;;;;;;;9.23;6.45;;;;;;;;;;9485216;30;20132;-72
2023/05/26 21:01:28;;;;;;;8.02;6.55;;;;;;;;;;9486087;30;20475;-74
2023/05/26 21:06:22;;;;;;;10.30;6.88;;;;;;;;;;9488911;30;20052;-74
2023/05/26 21:11:20;;;;;;;7.18;6.40;;;;;;;;;;9493501;30;20589;-73
2023/05/26 21:16:13;;;;;;;10.18;6.65;;;;;;;;;;9496936;30;20080;-72
2023/05/26 21:21:07;;;;;;;10.57;6.32;;;;;;;;;;9488306;30;20106;-72
2023/05/26 21:26:00;;;;;;;9.98;6.93;;;;;;;;;;9500516;30;20412;-71
2023/05/26 21:30:55;;;;;;;9.02;7.63;;;;;;;;;;9506623;29;20071;-72
2023/05/26 21:35:48;;;;;;;7.78;6.93;;;;;;;;;;9501594;30;20076;-73
2023/05/26 21:40:41;;;;;;;10.23;7.85;;;;;;;;;;9498256;30;20143;-75
2023/05/26 21:45:35;;;;;;;14.57;7.50;;;;;;;;;;9499866;30;20059;-72
2023/05/26 21:50:28;;;;;;;6.88;6.18;;;;;;;;;;9500256;30;20064;-75
2023/05/26 21:55:24;;;;;;;7.40;6.70;;;;;;;;;;9496653;30;20052;-72
2023/05/26 22:00:17;;;;;;;9.18;6.50;;;;;;;;;;9482662;30;20140;-72
2023/05/26 22:05:11;;;;;;;8.82;7.72;;;;;;;;;;9493326;30;20060;-71
2023/05/26 22:10:07;;;;;;;7.65;6.85;;;;;;;;;;9494051;30;20048;-72
2023/05/26 22:15:01;;;;;;;13.85;8.90;;;;;;;;;;9485520;30;20139;-71
2023/05/26 22:19:55;;;;;;;8.07;6.88;;;;;;;;;;9490995;30;20058;-72
2023/05/26 22:24:49;;;;;;;10.32;7.18;;;;;;;;;;9499658;30;20064;-72
2023/05/26 22:29:43;;;;;;;9.40;6.07;;;;;;;;;;9500943;30;20071;-75
2023/05/26 22:34:36;;;;;;;10.00;6.90;;;;;;;;;;9502974;30;20125;-73
2023/05/26 22:39:29;;;;;;;7.80;6.93;;;;;;;;;;9496687;29;20493;-75
2023/05/26 22:44:23;;;;;;;11.07;8.02;;;;;;;;;;9489549;30;20061;-67
2023/05/26 22:49:17;;;;;;;11.63;7.22;;;;;;;;;;9503451;30;20058;-67
2023/05/26 22:54:11;;;;;;;9.63;6.75;;;;;;;;;;9497413;30;20080;-67
2023/05/26 22:59:04;;;;;;;9.10;7.82;;;;;;;;;;9499453;30;20052;-67
2023/05/26 23:03:57;;;;;;;8.95;7.55;;;;;;;;;;9497820;30;20067;-67
2023/05/26 23:08:50;;;;;;;7.60;6.35;;;;;;;;;;9498687;30;20083;-67
2023/05/26 23:13:44;;;;;;;8.25;7.38;;;;;;;;;;9494483;30;20496;-67
2023/05/26 23:18:37;;;;;;;9.13;7.28;;;;;;;;;;9500402;30;20048;-67
2023/05/26 23:23:31;;;;;;;10.18;6.80;;;;;;;;;;9499610;30;20044;-67
2023/05/26 23:28:25;;;;;;;12.35;7.40;;;;;;;;;;9501175;30;20067;-67
2023/05/26 23:33:19;;;;;;;12.90;8.02;;;;;;;;;;9499027;30;20071;-67
2023/05/26 23:38:13;;;;;;;11.23;7.70;;;;;;;;;;9494359;30;20475;-67
2023/05/26 23:43:07;;;;;;;11.00;7.30;;;;;;;;;;9497288;30;20048;-68
2023/05/26 23:48:01;;;;;;;12.50;7.18;;;;;;;;;;9493952;30;20059;-67
2023/05/26 23:52:55;;;;;;;14.95;6.95;;;;;;;;;;9493349;30;20140;-67
2023/05/26 23:57:48;;;;;;;10.05;7.13;;;;;;;;;;9490675;30;20071;-67
